Time;durP1;ratioP1;P1;durP2;ratioP2;P2;SDS_P1;SDS_P2;PMS_P1;PMS_P2;Temp;Humidity;BMP_temperature;BMP_pressure;BME280_temperature;BME280_humidity;BME280_pressure;Samples;Min_cycle;Max_cycle;Signal;HPM_P1;HPM_P2
2021/01/13 00:00:21;;;;;;;17.43;10.20;;;1.70;99.90;;;;;;5006798;28;20405;-54
2021/01/13 00:02:47;;;;;;;19.23;10.70;;;1.70;99.90;;;;;;5011780;28;20476;-54
2021/01/13 00:05:13;;;;;;;16.20;9.00;;;3.80;99.90;;;;;;5009622;28;20487;-54
2021/01/13 00:07:40;;;;;;;12.15;8.10;;;4.10;99.90;;;;;;5011572;28;20393;-54
2021/01/13 00:10:07;;;;;;;14.70;7.95;;;2.00;99.90;;;;;;5010064;28;20535;-54
2021/01/13 00:12:33;;;;;;;15.55;7.72;;;2.00;99.90;;;;;;5009228;28;20424;-54
2021/01/13 00:14:58;;;;;;;13.70;8.27;;;2.20;99.90;;;;;;5011140;28;20396;-54
2021/01/13 00:17:24;;;;;;;15.50;6.70;;;4.50;99.90;;;;;;5009982;28;20470;-54
2021/01/13 00:19:50;;;;;;;12.60;6.80;;;4.20;99.90;;;;;;5010467;28;20475;-54
2021/01/13 00:22:15;;;;;;;12.77;6.93;;;2.20;99.90;;;;;;5009480;28;21867;-54
2021/01/13 00:24:41;;;;;;;12.27;7.50;;;2.20;99.90;;;;;;5009743;28;20405;-54
2021/01/13 00:27:06;;;;;;;12.73;6.70;;;2.30;99.90;;;;;;5007396;28;20409;-54
2021/01/13 00:29:32;;;;;;;13.80;7.63;;;2.20;99.90;;;;;;5007717;28;20471;-54
2021/01/13 00:31:59;;;;;;;12.03;7.30;;;2.20;99.90;;;;;;5010870;28;20424;-54
2021/01/13 00:34:25;;;;;;;10.50;6.88;;;2.30;99.90;;;;;;5009252;28;20461;-54
2021/01/13 00:36:51;;;;;;;12.93;6.82;;;2.20;99.90;;;;;;5011339;28;20484;-54
2021/01/13 00:39:17;;;;;;;12.23;7.40;;;2.20;99.90;;;;;;5009044;28;20527;-54
2021/01/13 00:41:42;;;;;;;12.63;7.13;;;4.10;99.90;;;;;;5011364;28;20377;-54
2021/01/13 00:44:08;;;;;;;14.90;7.28;;;2.90;99.90;;;;;;5009360;28;20411;-54
2021/01/13 00:46:39;;;;;;;11.85;6.95;;;3.90;99.90;;;;;;5010707;28;20843;-54
2021/01/13 00:49:06;;;;;;;13.15;7.38;;;2.30;99.90;;;;;;5010789;28;20866;-54
2021/01/13 00:51:38;;;;;;;11.50;6.30;;;2.30;99.90;;;;;;5009447;28;20405;-54
2021/01/13 00:54:05;;;;;;;12.40;6.50;;;2.40;99.90;;;;;;5010751;28;20471;-54
2021/01/13 00:56:32;;;;;;;11.25;6.22;;;2.60;99.90;;;;;;5009652;28;20397;-54
2021/01/13 00:58:58;;;;;;;12.23;6.00;;;2.60;99.90;;;;;;5010684;28;20407;-54
2021/01/13 01:01:25;;;;;;;11.10;5.70;;;2.60;99.90;;;;;;5009008;28;21453;-54
2021/01/13 01:03:52;;;;;;;9.98;5.97;;;4.10;99.90;;;;;;5010180;28;20447;-54
2021/01/13 01:06:21;;;;;;;9.43;5.68;;;5.20;99.90;;;;;;5008290;28;20432;-54
2021/01/13 01:08:47;;;;;;;12.43;5.50;;;3.90;99.90;;;;;;5010707;28;20377;-54
2021/01/13 01:11:18;;;;;;;9.25;5.60;;;4.60;99.90;;;;;;5008217;28;20412;-54
2021/01/13 01:13:44;;;;;;;13.05;5.93;;;3.80;99.90;;;;;;5010169;28;20381;-54
2021/01/13 01:16:09;;;;;;;11.00;5.57;;;2.50;99.90;;;;;;5009255;28;20755;-54
2021/01/13 01:18:35;;;;;;;11.20;5.27;;;2.60;99.90;;;;;;5009316;28;21011;-54
2021/01/13 01:21:01;;;;;;;10.50;5.33;;;2.50;99.90;;;;;;5010083;28;20399;-54
2021/01/13 01:23:26;;;;;;;12.35;5.80;;;2.50;99.90;;;;;;5008887;28;20892;-54
2021/01/13 01:25:52;;;;;;;11.37;5.50;;;3.90;99.90;;;;;;5009968;28;20687;-54
2021/01/13 01:28:17;;;;;;;9.25;5.40;;;2.60;99.90;;;;;;5008744;28;20412;-54
2021/01/13 01:30:43;;;;;;;8.87;5.30;;;5.50;99.90;;;;;;5009083;28;20405;-54
2021/01/13 01:33:09;;;;;;;11.03;4.90;;;2.70;99.90;;;;;;5009701;28;20493;-54
2021/01/13 01:35:34;;;;;;;11.27;4.85;;;2.70;99.90;;;;;;5009273;28;20878;-54
2021/01/13 01:38:00;;;;;;;12.43;5.53;;;2.80;99.90;;;;;;5009852;28;20474;-54
2021/01/13 01:40:26;;;;;;;10.50;5.15;;;2.70;99.90;;;;;;5008978;28;20492;-54
2021/01/13 01:42:53;;;;;;;10.35;5.28;;;2.70;99.90;;;;;;5009941;28;20385;-54
2021/01/13 01:45:30;;;;;;;9.45;4.32;;;2.70;99.90;;;;;;5008665;28;20603;-54
2021/01/13 01:48:01;;;;;;;10.80;4.40;;;2.80;99.90;;;;;;5008941;28;20396;-54
2021/01/13 01:50:38;;;;;;;9.05;4.70;;;2.80;99.90;;;;;;5009755;28;20385;-54
2021/01/13 01:53:15;;;;;;;9.85;4.57;;;2.80;99.90;;;;;;5009381;28;20397;-54
2021/01/13 01:56:05;;;;;;;7.20;4.20;;;2.80;99.90;;;;;;5009213;28;20766;-54
2021/01/13 01:58:31;;;;;;;10.85;4.85;;;2.80;99.90;;;;;;5008733;28;20421;-54
2021/01/13 02:01:02;;;;;;;9.10;4.80;;;2.80;99.90;;;;;;5010313;28;20452;-54
2021/01/13 02:03:33;;;;;;;9.63;5.00;;;2.80;99.90;;;;;;5008987;28;20436;-54
2021/01/13 02:06:06;;;;;;;11.32;4.75;;;2.70;99.90;;;;;;5009267;28;20397;-54
2021/01/13 02:08:38;;;;;;;10.30;4.60;;;2.60;99.90;;;;;;5008752;28;20408;-54
2021/01/13 02:11:04;;;;;;;9.80;4.40;;;2.50;99.90;;;;;;5008765;28;20879;-54
2021/01/13 02:13:30;;;;;;;9.95;4.80;;;2.60;99.90;;;;;;5008623;28;20389;-54
2021/01/13 02:15:56;;;;;;;8.70;4.25;;;2.60;99.90;;;;;;5010092;28;20393;-54
2021/01/13 02:18:26;;;;;;;8.80;4.63;;;2.80;99.90;;;;;;5008233;28;20531;-54
2021/01/13 02:20:53;;;;;;;7.78;4.18;;;2.90;99.90;;;;;;5009273;28;20392;-54
2021/01/13 02:23:34;;;;;;;9.68;4.22;;;3.10;99.90;;;;;;5007809;28;20407;-54
2021/01/13 02:26:22;;;;;;;7.55;3.80;;;3.10;99.90;;;;;;5009672;28;20417;-54
2021/01/13 02:29:08;;;;;;;7.40;4.05;;;3.20;99.90;;;;;;5008632;28;20806;-54
2021/01/13 02:31:35;;;;;;;7.65;4.30;;;3.20;99.90;;;;;;5009460;28;20428;-54
2021/01/13 02:34:19;;;;;;;11.05;4.50;;;3.30;99.90;;;;;;5009468;28;20377;-54
2021/01/13 02:37:36;;;;;;;7.82;4.20;;;3.30;99.90;;;;;;5008281;28;20400;-54
2021/01/13 02:40:17;;;;;;;9.40;4.75;;;3.20;99.90;;;;;;4946548;29;20501;-54
2021/01/13 02:43:07;;;;;;;7.80;4.43;;;3.10;99.90;;;;;;4990773;28;20434;-55
2021/01/13 02:45:37;;;;;;;7.65;4.28;;;3.20;99.90;;;;;;5009251;28;20439;-55
2021/01/13 02:48:07;;;;;;;9.65;4.55;;;4.40;99.90;;;;;;5009224;28;20407;-54
2021/01/13 02:50:36;;;;;;;10.55;4.47;;;3.30;99.90;;;;;;4994132;28;20754;-54
2021/01/13 02:53:07;;;;;;;12.23;4.65;;;5.50;99.90;;;;;;5012614;28;20372;-54
2021/01/13 02:55:48;;;;;;;8.50;4.22;;;3.30;99.90;;;;;;5012095;28;20432;-54
2021/01/13 02:58:19;;;;;;;10.23;3.92;;;3.40;99.90;;;;;;5010278;28;20409;-54
2021/01/13 03:00:45;;;;;;;10.10;5.00;;;3.40;99.90;;;;;;5011891;28;20941;-54
2021/01/13 03:03:14;;;;;;;13.67;5.20;;;3.30;99.90;;;;;;5011278;28;20397;-54
2021/01/13 03:05:39;;;;;;;12.60;4.63;;;3.20;99.90;;;;;;5011749;28;20735;-54
2021/01/13 03:08:11;;;;;;;12.10;4.83;;;3.10;99.90;;;;;;5010972;28;20412;-54
2021/01/13 03:10:38;;;;;;;9.73;5.18;;;3.10;99.90;;;;;;5012442;28;20451;-54
2021/01/13 03:13:06;;;;;;;10.60;5.50;;;3.20;99.90;;;;;;5011088;28;20404;-54
2021/01/13 03:15:34;;;;;;;9.80;5.05;;;3.20;99.90;;;;;;5012827;28;20447;-54
2021/01/13 03:18:27;;;;;;;10.70;4.97;;;3.10;99.90;;;;;;5012167;28;20905;-54
2021/01/13 03:21:05;;;;;;;9.55;5.22;;;3.00;99.90;;;;;;5012321;28;20743;-54
2021/01/13 03:23:42;;;;;;;10.87;5.50;;;3.10;99.90;;;;;;5011381;28;20599;-54
2021/01/13 03:26:09;;;;;;;9.45;4.80;;;3.10;99.90;;;;;;5012045;28;20412;-54
2021/01/13 03:28:37;;;;;;;11.63;5.10;;;3.10;99.90;;;;;;5011367;28;20532;-54
2021/01/13 03:31:04;;;;;;;8.10;5.18;;;5.40;99.90;;;;;;5010509;28;20404;-54
2021/01/13 03:33:48;;;;;;;11.77;5.60;;;3.00;99.90;;;;;;5012453;28;20850;-55
2021/01/13 03:36:45;;;;;;;12.97;5.00;;;3.10;99.90;;;;;;5011893;28;20431;-54
2021/01/13 03:39:12;;;;;;;11.60;5.72;;;3.00;99.90;;;;;;5010207;28;20444;-54
2021/01/13 03:41:52;;;;;;;9.95;5.85;;;3.00;99.90;;;;;;5012941;28;20397;-54
2021/01/13 03:44:24;;;;;;;12.75;6.25;;;3.00;99.90;;;;;;5010399;28;20503;-54
2021/01/13 03:46:50;;;;;;;10.77;5.90;;;3.10;99.90;;;;;;5012406;28;20468;-54
2021/01/13 03:49:18;;;;;;;12.77;6.18;;;3.00;99.90;;;;;;5009710;28;20847;-54
2021/01/13 03:52:03;;;;;;;11.20;5.75;;;4.60;99.90;;;;;;5012448;28;20385;-54
2021/01/13 03:54:35;;;;;;;9.95;5.30;;;3.10;99.90;;;;;;5010722;28;20393;-54
2021/01/13 03:57:07;;;;;;;13.00;6.20;;;3.10;99.90;;;;;;5012115;28;20412;-54
2021/01/13 03:59:53;;;;;;;9.68;5.30;;;3.20;99.90;;;;;;5010835;28;20416;-54
2021/01/13 04:02:26;;;;;;;12.30;5.85;;;3.30;99.90;;;;;;5010117;28;20401;-54
2021/01/13 04:05:30;;;;;;;10.40;5.60;;;4.90;99.90;;;;;;5010827;28;20703;-54
2021/01/13 04:07:57;;;;;;;10.52;5.63;;;3.20;99.90;;;;;;5004657;28;20922;-54
2021/01/13 04:10:23;;;;;;;10.30;5.65;;;3.20;99.90;;;;;;5011132;28;20405;-55
2021/01/13 04:13:33;;;;;;;10.65;5.45;;;4.80;99.90;;;;;;5010280;28;20408;-54
2021/01/13 04:16:00;;;;;;;12.40;5.63;;;3.10;99.90;;;;;;5009500;28;20432;-54
2021/01/13 04:18:26;;;;;;;11.27;5.38;;;3.00;99.90;;;;;;5011403;28;20412;-54
2021/01/13 04:20:52;;;;;;;11.23;5.30;;;2.90;99.90;;;;;;5010590;28;20397;-54
2021/01/13 04:23:17;;;;;;;11.73;5.28;;;2.70;99.90;;;;;;5008514;28;20488;-54
2021/01/13 04:25:43;;;;;;;12.33;5.57;;;2.70;99.90;;;;;;5011952;28;20469;-54
2021/01/13 04:28:09;;;;;;;9.57;4.90;;;2.60;99.90;;;;;;5009163;28;20456;-54
2021/01/13 04:30:36;;;;;;;11.50;5.40;;;2.60;99.90;;;;;;5011344;28;20460;-54
2021/01/13 04:33:02;;;;;;;13.13;5.70;;;2.50;99.90;;;;;;5010055;28;20397;-54
2021/01/13 04:35:28;;;;;;;10.98;5.50;;;2.50;99.90;;;;;;5009738;28;20605;-54
2021/01/13 04:37:57;;;;;;;11.30;5.72;;;2.40;99.90;;;;;;5011316;28;20401;-54
2021/01/13 04:40:39;;;;;;;10.95;5.75;;;2.40;99.90;;;;;;5010865;28;20381;-54
2021/01/13 04:43:10;;;;;;;11.70;5.93;;;2.20;99.90;;;;;;5009248;28;20396;-54
2021/01/13 04:45:41;;;;;;;12.20;5.73;;;2.20;99.90;;;;;;5007691;28;20830;-54
2021/01/13 04:48:07;;;;;;;10.95;5.78;;;3.50;99.90;;;;;;5009994;28;20827;-54
2021/01/13 04:50:36;;;;;;;12.00;6.00;;;2.10;99.90;;;;;;5010192;28;20411;-54
2021/01/13 04:53:08;;;;;;;9.82;5.55;;;2.40;99.90;;;;;;5010950;28;20424;-54
2021/01/13 04:55:48;;;;;;;13.65;6.10;;;2.30;99.90;;;;;;5010659;28;20712;-54
2021/01/13 04:58:20;;;;;;;11.77;5.50;;;2.00;99.90;;;;;;5010268;28;20408;-54
2021/01/13 05:01:18;;;;;;;13.95;6.32;;;1.90;99.90;;;;;;5009728;28;20412;-54
2021/01/13 05:04:01;;;;;;;12.80;6.30;;;1.90;99.90;;;;;;5003919;28;20400;-54
2021/01/13 05:06:42;;;;;;;10.45;5.63;;;1.90;99.90;;;;;;5008778;28;20465;-54
2021/01/13 05:09:09;;;;;;;14.82;6.10;;;1.80;99.90;;;;;;5008702;28;20993;-54
2021/01/13 05:11:47;;;;;;;9.77;5.32;;;4.30;99.90;;;;;;5003364;28;20457;-56
2021/01/13 05:14:14;;;;;;;11.63;6.22;;;2.30;99.90;;;;;;5008228;28;20404;-53
2021/01/13 05:17:03;;;;;;;11.30;5.30;;;1.60;99.90;;;;;;5008904;28;20393;-53
2021/01/13 05:19:29;;;;;;;12.10;5.60;;;1.50;99.90;;;;;;5009709;28;20503;-54
2021/01/13 05:21:57;;;;;;;11.82;4.93;;;1.50;99.90;;;;;;5009800;28;20487;-54
2021/01/13 05:24:25;;;;;;;12.52;5.50;;;1.50;99.90;;;;;;5010313;28;20652;-54
2021/01/13 05:27:04;;;;;;;10.80;5.40;;;3.90;99.90;;;;;;5008268;28;20427;-54
2021/01/13 05:29:37;;;;;;;14.30;5.90;;;1.40;99.90;;;;;;5009978;28;20802;-54
2021/01/13 05:32:06;;;;;;;11.27;5.68;;;1.30;99.90;;;;;;5009431;28;20425;-54
2021/01/13 05:34:36;;;;;;;13.25;5.30;;;1.30;99.90;;;;;;5010314;28;20778;-54
2021/01/13 05:37:16;;;;;;;10.18;4.90;;;1.30;99.90;;;;;;5009023;28;20961;-54
2021/01/13 05:39:46;;;;;;;15.00;5.90;;;1.20;99.90;;;;;;5006377;28;20456;-54
2021/01/13 05:42:14;;;;;;;10.65;4.65;;;1.20;99.90;;;;;;5006240;28;20768;-54
2021/01/13 05:44:42;;;;;;;11.07;5.22;;;1.20;99.90;;;;;;4994576;28;20404;-54
2021/01/13 05:47:39;;;;;;;13.70;5.10;;;1.20;99.90;;;;;;4994213;28;20393;-55
2021/01/13 05:50:07;;;;;;;13.25;5.15;;;1.20;99.90;;;;;;5003371;28;20389;-54
2021/01/13 05:52:33;;;;;;;11.60;5.00;;;1.20;99.90;;;;;;5008701;28;20393;-54
2021/01/13 05:54:59;;;;;;;13.05;5.18;;;1.20;99.90;;;;;;5008069;28;20489;-54
2021/01/13 05:57:24;;;;;;;9.73;4.80;;;1.10;99.90;;;;;;5008006;28;20408;-54
2021/01/13 05:59:52;;;;;;;13.05;5.30;;;1.10;99.90;;;;;;5008497;28;20427;-54
2021/01/13 06:02:19;;;;;;;9.73;5.20;;;1.00;99.90;;;;;;5007966;28;20966;-53
2021/01/13 06:04:47;;;;;;;13.30;4.57;;;1.00;99.90;;;;;;5009598;28;20967;-54
2021/01/13 06:07:24;;;;;;;12.95;5.13;;;0.90;99.90;;;;;;5009181;28;20385;-53
2021/01/13 06:09:55;;;;;;;15.73;5.57;;;2.50;99.90;;;;;;5006821;28;20429;-54
2021/01/13 06:12:22;;;;;;;10.85;5.18;;;0.80;99.90;;;;;;5005930;28;20424;-54
2021/01/13 06:14:54;;;;;;;8.30;4.75;;;0.80;99.90;;;;;;5000212;28;20488;-54
2021/01/13 06:17:24;;;;;;;11.30;5.60;;;0.80;99.90;;;;;;5007746;28;20384;-54
2021/01/13 06:19:52;;;;;;;11.40;5.13;;;0.80;99.90;;;;;;5008934;28;20388;-56
2021/01/13 06:22:27;;;;;;;13.40;5.20;;;0.80;99.90;;;;;;5006391;28;20910;-55
2021/01/13 06:24:59;;;;;;;12.43;4.88;;;0.80;99.90;;;;;;5008630;28;20404;-54
2021/01/13 06:27:47;;;;;;;14.10;5.57;;;0.70;99.90;;;;;;5012195;28;20389;-55
2021/01/13 06:30:25;;;;;;;12.17;5.20;;;0.70;99.90;;;;;;5007401;28;20878;-56
2021/01/13 06:33:10;;;;;;;15.40;5.30;;;1.30;99.90;;;;;;5011681;28;20417;-56
2021/01/13 06:35:41;;;;;;;15.98;5.95;;;0.70;99.90;;;;;;5010859;28;20445;-55
2021/01/13 06:38:33;;;;;;;11.10;5.63;;;0.70;99.90;;;;;;5007685;28;20414;-56
2021/01/13 06:40:59;;;;;;;13.20;5.70;;;0.60;99.90;;;;;;5003370;28;20448;-56
2021/01/13 06:43:25;;;;;;;12.70;4.95;;;0.70;99.90;;;;;;5006547;28;20451;-56
2021/01/13 06:45:51;;;;;;;12.80;5.10;;;0.70;99.90;;;;;;5003530;28;20401;-56
2021/01/13 06:48:26;;;;;;;12.27;4.70;;;0.80;99.90;;;;;;5010382;28;20401;-56
2021/01/13 06:50:59;;;;;;;13.93;5.30;;;0.70;99.90;;;;;;5008695;28;20405;-54
2021/01/13 06:53:36;;;;;;;11.67;5.60;;;1.80;99.90;;;;;;5009675;28;21040;-56
2021/01/13 06:56:15;;;;;;;14.00;5.23;;;0.80;99.90;;;;;;5006532;28;20494;-56
2021/01/13 06:59:00;;;;;;;14.02;5.20;;;0.80;99.90;;;;;;5007716;28;20423;-56
2021/01/13 07:01:26;;;;;;;14.18;5.70;;;3.40;99.90;;;;;;5011254;28;20409;-56
2021/01/13 07:04:05;;;;;;;11.32;5.30;;;0.80;99.90;;;;;;5010221;28;20471;-56
2021/01/13 07:06:32;;;;;;;11.52;5.22;;;0.70;99.90;;;;;;5011148;28;20926;-56
2021/01/13 07:08:58;;;;;;;11.00;4.90;;;2.90;99.90;;;;;;5011162;28;20404;-56
2021/01/13 07:11:25;;;;;;;11.32;5.30;;;0.70;99.90;;;;;;5010528;28;20400;-56
2021/01/13 07:14:00;;;;;;;11.85;5.70;;;0.80;99.90;;;;;;5005742;28;20566;-56
2021/01/13 07:16:30;;;;;;;12.57;5.80;;;0.80;99.90;;;;;;5008280;28;20397;-56
2021/01/13 07:18:57;;;;;;;15.13;6.20;;;1.10;99.90;;;;;;5008569;28;20865;-56
2021/01/13 07:21:38;;;;;;;15.02;6.10;;;0.80;99.90;;;;;;5002224;28;20406;-56
2021/01/13 07:24:12;;;;;;;17.67;6.40;;;0.80;99.90;;;;;;5007613;28;20766;-56
2021/01/13 07:26:39;;;;;;;13.45;6.22;;;0.80;99.90;;;;;;5009718;28;20413;-56
2021/01/13 07:29:05;;;;;;;11.15;5.97;;;0.80;99.90;;;;;;5010308;28;20892;-56
2021/01/13 07:31:32;;;;;;;11.80;5.70;;;0.70;99.90;;;;;;5006291;28;20420;-55
2021/01/13 07:34:16;;;;;;;13.33;6.33;;;2.80;99.90;;;;;;5008573;28;20509;-56
2021/01/13 07:36:50;;;;;;;12.25;6.03;;;3.60;99.90;;;;;;5008392;28;20405;-56
2021/01/13 07:39:16;;;;;;;16.00;6.25;;;0.80;99.90;;;;;;5010248;28;20420;-56
2021/01/13 07:42:10;;;;;;;14.73;6.32;;;3.70;99.90;;;;;;5009774;28;20455;-55
2021/01/13 07:44:44;;;;;;;15.30;6.20;;;0.90;99.90;;;;;;5001286;28;21031;-56
2021/01/13 07:47:25;;;;;;;9.52;5.40;;;1.00;99.90;;;;;;5006359;28;20405;-55
2021/01/13 07:50:06;;;;;;;16.23;6.50;;;1.10;99.90;;;;;;5005636;28;20404;-54
2021/01/13 07:52:37;;;;;;;14.85;5.75;;;1.20;99.90;;;;;;5000558;28;20420;-56
2021/01/13 07:55:12;;;;;;;11.65;5.20;;;1.20;99.90;;;;;;5009052;28;20483;-56
2021/01/13 07:57:44;;;;;;;18.02;6.30;;;1.30;99.90;;;;;;5006179;28;20420;-56
2021/01/13 08:00:22;;;;;;;13.77;6.47;;;1.30;99.90;;;;;;5006730;28;20417;-56
2021/01/13 08:03:25;;;;;;;14.90;5.80;;;1.30;99.90;;;;;;5007258;28;20494;-56
2021/01/13 08:06:27;;;;;;;13.25;5.60;;;1.30;99.90;;;;;;5008436;28;20416;-56
2021/01/13 08:09:04;;;;;;;13.98;5.03;;;1.30;99.90;;;;;;5009192;28;20486;-56
2021/01/13 08:12:04;;;;;;;12.90;5.80;;;1.40;99.90;;;;;;5010019;28;20850;-56
2021/01/13 08:14:38;;;;;;;10.85;5.22;;;1.40;99.90;;;;;;5003138;28;20412;-56
2021/01/13 08:17:50;;;;;;;9.85;4.75;;;1.40;99.90;;;;;;5009659;28;20391;-56
2021/01/13 08:20:51;;;;;;;11.70;5.00;;;1.40;99.90;;;;;;5006833;28;20493;-56
2021/01/13 08:23:29;;;;;;;14.93;4.60;;;1.60;99.90;;;;;;5005208;28;20408;-56
2021/01/13 08:26:02;;;;;;;11.27;4.80;;;1.60;99.90;;;;;;5007136;28;20408;-56
2021/01/13 08:28:39;;;;;;;10.00;4.87;;;1.70;99.90;;;;;;5005569;28;20755;-56
2021/01/13 08:31:06;;;;;;;11.30;4.90;;;1.80;99.90;;;;;;5007724;28;20409;-54
2021/01/13 08:33:35;;;;;;;11.77;5.17;;;2.30;99.90;;;;;;5009861;28;20393;-54
2021/01/13 08:36:10;;;;;;;9.60;4.60;;;2.30;99.90;;;;;;5005829;28;20403;-54
2021/01/13 08:38:36;;;;;;;12.03;5.03;;;2.50;99.90;;;;;;5004450;28;20420;-54
2021/01/13 08:41:24;;;;;;;12.02;4.80;;;2.70;99.90;;;;;;5009363;28;20393;-54
2021/01/13 08:44:17;;;;;;;10.13;4.80;;;2.70;99.90;;;;;;4998058;28;20981;-54
2021/01/13 08:46:59;;;;;;;9.70;5.07;;;4.00;99.90;;;;;;4999039;28;20433;-54
2021/01/13 08:49:29;;;;;;;8.05;5.15;;;3.00;99.90;;;;;;5002286;28;20978;-54
2021/01/13 08:52:21;;;;;;;9.90;4.70;;;3.80;99.90;;;;;;5007367;28;20416;-56
2021/01/13 08:54:56;;;;;;;8.90;3.60;;;5.10;99.90;;;;;;5005423;28;20401;-56
2021/01/13 08:57:26;;;;;;;10.80;4.07;;;6.30;99.90;;;;;;5007573;28;20827;-55
2021/01/13 08:59:52;;;;;;;10.05;4.10;;;6.80;99.90;;;;;;5007183;28;20891;-55
2021/01/13 09:02:19;;;;;;;8.05;3.95;;;10.00;99.90;;;;;;5007795;28;20404;-54
2021/01/13 09:04:58;;;;;;;8.65;4.22;;;7.40;99.90;;;;;;5006276;28;20437;-55
2021/01/13 09:07:28;;;;;;;8.05;4.20;;;7.20;99.90;;;;;;5006526;28;20396;-55
2021/01/13 09:10:00;;;;;;;10.02;4.30;;;7.10;99.90;;;;;;5003583;28;20420;-56
2021/01/13 09:12:43;;;;;;;8.18;3.90;;;8.20;99.90;;;;;;5005690;28;20420;-55
2021/01/13 09:15:14;;;;;;;8.25;3.95;;;8.50;99.90;;;;;;4995714;28;20392;-55
2021/01/13 09:17:51;;;;;;;8.73;3.97;;;8.30;99.90;;;;;;5005790;28;20412;-55
2021/01/13 09:20:23;;;;;;;9.45;3.80;;;7.80;99.90;;;;;;5006454;28;20396;-55
2021/01/13 09:23:03;;;;;;;8.25;3.60;;;7.30;99.90;;;;;;5003806;28;20448;-55
2021/01/13 09:25:55;;;;;;;9.70;4.00;;;7.60;99.90;;;;;;5004426;28;20890;-55
2021/01/13 09:28:20;;;;;;;10.40;3.90;;;7.70;99.90;;;;;;5002305;28;20409;-57
2021/01/13 09:30:46;;;;;;;5.90;3.10;;;6.40;99.90;;;;;;5003482;28;20405;-57
2021/01/13 09:33:16;;;;;;;10.27;4.30;;;5.60;99.90;;;;;;5008383;28;20735;-55
2021/01/13 09:35:43;;;;;;;11.63;3.80;;;5.00;99.90;;;;;;5006993;28;20412;-54
2021/01/13 09:38:12;;;;;;;8.10;3.40;;;4.70;99.90;;;;;;5004832;28;20424;-54
2021/01/13 09:41:04;;;;;;;11.60;3.80;;;4.40;99.90;;;;;;5007580;28;20520;-54
2021/01/13 09:43:46;;;;;;;14.80;6.47;;;4.20;99.90;;;;;;5005503;28;20401;-54
2021/01/13 09:46:21;;;;;;;9.20;4.00;;;4.10;99.90;;;;;;5000434;28;20429;-54
2021/01/13 09:48:58;;;;;;;11.65;3.65;;;6.20;99.90;;;;;;5004528;28;20870;-54
2021/01/13 09:51:24;;;;;;;8.50;3.60;;;3.90;99.90;;;;;;5006766;28;20393;-55
2021/01/13 09:53:53;;;;;;;10.55;3.85;;;3.90;99.90;;;;;;5005492;28;20462;-55
2021/01/13 09:56:20;;;;;;;8.23;3.80;;;4.10;99.90;;;;;;5007331;28;20783;-54
2021/01/13 09:58:47;;;;;;;11.23;3.55;;;4.10;99.90;;;;;;5007465;28;20479;-55
2021/01/13 10:01:36;;;;;;;10.32;3.60;;;4.00;99.90;;;;;;5007496;28;20491;-54
2021/01/13 10:04:08;;;;;;;12.30;3.30;;;4.00;99.90;;;;;;5006656;28;20397;-55
2021/01/13 10:06:41;;;;;;;9.27;3.15;;;3.70;99.90;;;;;;5009291;28;20392;-54
2021/01/13 10:09:18;;;;;;;8.60;3.30;;;3.40;99.90;;;;;;5002344;28;20897;-54
2021/01/13 10:11:45;;;;;;;6.53;3.22;;;3.40;99.90;;;;;;5003046;28;20439;-54
2021/01/13 10:14:16;;;;;;;13.35;3.60;;;3.50;99.90;;;;;;4997985;28;20417;-54
2021/01/13 10:16:45;;;;;;;10.30;3.28;;;3.50;99.90;;;;;;5003671;28;20870;-54
2021/01/13 10:19:12;;;;;;;7.30;3.10;;;3.50;99.90;;;;;;5004291;28;20731;-54
2021/01/13 10:21:49;;;;;;;6.63;3.00;;;3.30;99.90;;;;;;5006078;28;20401;-54
2021/01/13 10:24:17;;;;;;;7.38;2.70;;;3.20;99.90;;;;;;5006739;28;20897;-54
2021/01/13 10:26:48;;;;;;;8.20;2.83;;;3.20;99.90;;;;;;5006423;28;20397;-54
2021/01/13 10:29:21;;;;;;;9.73;2.55;;;3.30;99.90;;;;;;5003684;28;20435;-54
2021/01/13 10:31:48;;;;;;;9.38;3.15;;;3.30;99.90;;;;;;5004774;28;20397;-55
2021/01/13 10:34:14;;;;;;;10.50;3.25;;;3.50;99.90;;;;;;5003078;28;20443;-54
2021/01/13 10:36:43;;;;;;;7.43;3.10;;;3.40;99.90;;;;;;5005725;28;20965;-54
2021/01/13 10:39:12;;;;;;;8.48;2.90;;;3.40;99.90;;;;;;5004509;28;20425;-54
2021/01/13 10:41:41;;;;;;;7.33;3.20;;;3.40;99.90;;;;;;5002561;28;20886;-54
2021/01/13 10:44:13;;;;;;;8.05;3.30;;;3.70;99.90;;;;;;4994652;28;20539;-54
2021/01/13 10:46:58;;;;;;;7.60;2.80;;;3.70;99.90;;;;;;5001361;28;20413;-54
2021/01/13 10:49:31;;;;;;;6.70;2.70;;;3.70;99.90;;;;;;5004906;28;20455;-54
2021/01/13 10:52:00;;;;;;;6.30;2.50;;;3.60;99.90;;;;;;5005608;28;20485;-54
2021/01/13 10:54:31;;;;;;;6.70;2.70;;;3.80;99.90;;;;;;5004587;28;20423;-54
2021/01/13 10:57:08;;;;;;;5.97;2.38;;;4.10;99.90;;;;;;5006614;28;20427;-54
2021/01/13 10:59:34;;;;;;;5.70;2.20;;;3.90;99.90;;;;;;5005719;28;20413;-54
2021/01/13 11:02:04;;;;;;;8.02;3.10;;;3.80;99.90;;;;;;5005804;28;20401;-54
2021/01/13 11:04:31;;;;;;;7.25;2.55;;;4.00;99.90;;;;;;5006882;28;20397;-54
2021/01/13 11:07:02;;;;;;;5.50;2.30;;;4.10;99.90;;;;;;5004778;28;20498;-54
2021/01/13 11:09:28;;;;;;;5.83;2.50;;;4.00;99.90;;;;;;5002053;28;20504;-54
2021/01/13 11:11:55;;;;;;;7.40;2.40;;;4.00;99.90;;;;;;5005928;28;20551;-54
2021/01/13 11:14:35;;;;;;;12.15;3.05;;;4.10;99.90;;;;;;5003163;28;20472;-54
2021/01/13 11:17:20;;;;;;;7.75;2.50;;;4.30;99.90;;;;;;5005962;28;20463;-54
2021/01/13 11:19:54;;;;;;;9.63;3.15;;;4.70;99.90;;;;;;5008617;28;20416;-54
2021/01/13 11:22:21;;;;;;;9.10;3.17;;;4.70;99.90;;;;;;5005086;28;20458;-54
2021/01/13 11:24:50;;;;;;;9.32;2.80;;;4.70;99.90;;;;;;5006798;28;20408;-54
2021/01/13 11:27:25;;;;;;;6.93;3.00;;;4.50;99.90;;;;;;5009559;28;20470;-54
2021/01/13 11:29:56;;;;;;;9.60;2.20;;;4.50;99.90;;;;;;5009696;28;20400;-54
2021/01/13 11:32:26;;;;;;;9.15;2.50;;;4.20;99.90;;;;;;5004168;28;20417;-54
2021/01/13 11:34:55;;;;;;;6.35;2.35;;;4.00;99.90;;;;;;5008957;28;20420;-55
2021/01/13 11:37:41;;;;;;;7.32;2.17;;;4.10;99.90;;;;;;5003020;28;20405;-54
2021/01/13 11:40:30;;;;;;;7.50;2.20;;;4.00;99.90;;;;;;5009254;28;20417;-54
2021/01/13 11:43:26;;;;;;;6.35;1.80;;;4.10;99.90;;;;;;5005554;28;20492;-54
2021/01/13 11:46:24;;;;;;;7.27;1.90;;;4.10;99.90;;;;;;5001379;28;20373;-54
2021/01/13 11:48:52;;;;;;;8.48;2.45;;;4.10;99.90;;;;;;4999350;28;20562;-54
2021/01/13 11:51:21;;;;;;;7.47;1.80;;;4.00;99.90;;;;;;5007920;28;20392;-54
2021/01/13 11:53:47;;;;;;;5.93;1.98;;;5.60;99.90;;;;;;5009741;28;20480;-54
2021/01/13 11:56:13;;;;;;;7.70;2.40;;;4.00;99.90;;;;;;5006214;28;20393;-54
2021/01/13 11:58:46;;;;;;;5.55;1.92;;;4.00;99.90;;;;;;5005403;28;20432;-54
2021/01/13 12:01:12;;;;;;;7.63;2.25;;;4.00;99.90;;;;;;5007703;28;20861;-54
2021/01/13 12:03:38;;;;;;;6.30;2.05;;;5.00;99.90;;;;;;5009549;28;20412;-54
2021/01/13 12:06:07;;;;;;;7.60;2.00;;;4.00;99.90;;;;;;5005669;28;20396;-54
2021/01/13 12:08:33;;;;;;;7.03;2.10;;;3.90;99.90;;;;;;5010090;28;20397;-54
2021/01/13 12:10:59;;;;;;;6.22;2.70;;;5.10;99.90;;;;;;5001446;28;20439;-54
2021/01/13 12:13:27;;;;;;;4.50;1.77;;;4.10;99.90;;;;;;5008844;28;20396;-54
2021/01/13 12:16:04;;;;;;;6.55;1.90;;;4.30;99.90;;;;;;5001669;28;20412;-54
2021/01/13 12:18:35;;;;;;;6.40;2.28;;;4.20;99.90;;;;;;5005631;28;20421;-54
2021/01/13 12:21:12;;;;;;;6.80;1.70;;;4.10;99.90;;;;;;5007450;28;20397;-54
2021/01/13 12:23:39;;;;;;;7.70;1.63;;;4.20;99.90;;;;;;5006739;28;20781;-54
2021/01/13 12:26:32;;;;;;;5.70;1.33;;;5.60;99.90;;;;;;5007735;28;20508;-54
2021/01/13 12:29:01;;;;;;;7.40;1.38;;;4.20;99.90;;;;;;5007319;28;20787;-54
2021/01/13 12:31:43;;;;;;;6.45;1.30;;;4.10;99.90;;;;;;5005359;28;20433;-54
2021/01/13 12:34:14;;;;;;;4.47;1.25;;;4.20;99.90;;;;;;5003243;28;20401;-53
2021/01/13 12:36:45;;;;;;;6.13;1.10;;;4.20;99.90;;;;;;4998206;28;20408;-54
2021/01/13 12:39:28;;;;;;;4.30;1.30;;;4.10;99.90;;;;;;5003914;28;20474;-54
2021/01/13 12:41:56;;;;;;;10.00;1.48;;;4.30;99.90;;;;;;5004951;28;20831;-54
2021/01/13 12:44:22;;;;;;;4.68;1.23;;;4.10;99.90;;;;;;4998701;28;21512;-53
2021/01/13 12:46:56;;;;;;;7.32;1.30;;;5.70;99.90;;;;;;5005679;28;20416;-53
2021/01/13 12:49:22;;;;;;;5.95;1.20;;;4.10;99.90;;;;;;5005820;28;20490;-54
2021/01/13 12:51:55;;;;;;;3.33;0.90;;;4.00;99.90;;;;;;5007106;28;20423;-53
2021/01/13 12:54:22;;;;;;;5.50;1.13;;;3.90;99.90;;;;;;5005623;28;20558;-54
2021/01/13 12:56:48;;;;;;;5.40;0.90;;;4.00;99.90;;;;;;5009060;28;20388;-54
2021/01/13 12:59:14;;;;;;;4.63;1.10;;;3.90;99.90;;;;;;5003651;28;20413;-54
2021/01/13 13:01:43;;;;;;;4.55;1.40;;;4.00;99.90;;;;;;5007290;28;20408;-54
2021/01/13 13:04:09;;;;;;;5.88;1.30;;;4.10;99.90;;;;;;5008400;28;20488;-54
2021/01/13 13:06:36;;;;;;;5.32;1.40;;;5.70;99.90;;;;;;5008986;28;20480;-54
2021/01/13 13:09:07;;;;;;;6.68;1.30;;;4.10;99.90;;;;;;5008358;28;20435;-54
2021/01/13 13:11:34;;;;;;;6.97;1.02;;;4.90;99.90;;;;;;5006054;28;20405;-54
2021/01/13 13:14:00;;;;;;;8.88;1.20;;;3.80;99.90;;;;;;5001504;28;20396;-54
2021/01/13 13:16:27;;;;;;;5.93;1.08;;;4.00;99.90;;;;;;5004533;28;20423;-54
2021/01/13 13:18:55;;;;;;;4.85;0.93;;;4.40;99.90;;;;;;5007549;28;20424;-54